Time;durP1;ratioP1;P1;durP2;ratioP2;P2;SDS_P1;SDS_P2;PMS_P1;PMS_P2;Temp;Humidity;BMP_temperature;BMP_pressure;BME280_temperature;BME280_humidity;BME280_pressure;Samples;Min_cycle;Max_cycle;Signal;HPM_P1;HPM_P2
2022/11/08 00:02:11;;;;;;;5.50;1.90;;;12.30;99.90;;;;;;5076360;28;20048;-56
2022/11/08 00:04:37;;;;;;;6.13;2.65;;;12.30;99.90;;;;;;5076731;28;20412;-56
2022/11/08 00:15:16;;;;;;;11.15;2.42;;;12.30;99.90;;;;;;5073849;28;20043;-53
2022/11/08 00:17:42;;;;;;;9.07;2.33;;;12.30;99.90;;;;;;5076296;28;20028;-56
2022/11/08 00:20:08;;;;;;;5.22;1.80;;;12.30;99.90;;;;;;5082626;28;20032;-57
2022/11/08 00:22:34;;;;;;;3.78;1.83;;;12.30;99.90;;;;;;5078943;28;20029;-57
2022/11/08 00:25:00;;;;;;;9.27;2.05;;;12.30;99.90;;;;;;5078718;28;20450;-53
2022/11/08 00:27:26;;;;;;;6.88;3.05;;;12.30;99.90;;;;;;5076995;28;20073;-57
2022/11/08 00:29:52;;;;;;;7.00;1.98;;;12.30;99.90;;;;;;5077284;28;20071;-56
2022/11/08 00:32:20;;;;;;;7.05;2.17;;;12.40;99.90;;;;;;5080571;28;20043;-55
2022/11/08 00:34:47;;;;;;;3.85;2.33;;;12.40;99.90;;;;;;5071954;28;20028;-57
2022/11/08 00:37:14;;;;;;;5.75;1.90;;;12.40;99.90;;;;;;5104134;22;20043;-56
2022/11/08 00:39:40;;;;;;;2.55;1.60;;;12.40;99.90;;;;;;5059927;28;20047;-57
2022/11/08 00:42:05;;;;;;;2.90;1.40;;;12.40;99.90;;;;;;5078752;28;20469;-54
2022/11/08 00:44:31;;;;;;;5.15;2.13;;;12.40;99.90;;;;;;5080154;28;20063;-56
2022/11/08 00:46:57;;;;;;;5.68;2.40;;;12.40;99.90;;;;;;5077877;28;20029;-54
2022/11/08 00:49:22;;;;;;;4.43;2.28;;;12.40;99.90;;;;;;5079742;28;20024;-57
2022/11/08 00:51:48;;;;;;;4.60;1.77;;;12.40;99.90;;;;;;5071069;28;20024;-56
2022/11/08 00:54:17;;;;;;;5.75;2.30;;;12.40;99.90;;;;;;5085161;28;20020;-57
2022/11/08 00:56:43;;;;;;;4.57;1.40;;;12.40;99.90;;;;;;5076490;28;20111;-56
2022/11/08 00:59:11;;;;;;;4.07;1.83;;;12.40;99.90;;;;;;5082610;28;20124;-57
2022/11/08 01:01:36;;;;;;;4.78;1.85;;;12.40;99.90;;;;;;5079166;28;20117;-56
2022/11/08 01:04:02;;;;;;;4.15;1.60;;;12.40;99.90;;;;;;5082229;28;20492;-56
2022/11/08 01:06:27;;;;;;;5.13;2.08;;;12.40;99.90;;;;;;5082388;28;20028;-57
2022/11/08 01:08:54;;;;;;;5.90;2.22;;;12.40;99.90;;;;;;5082002;28;20079;-56
2022/11/08 01:11:21;;;;;;;4.55;1.88;;;12.40;99.90;;;;;;5062781;28;20107;-56
2022/11/08 01:13:48;;;;;;;4.05;1.98;;;12.40;99.90;;;;;;5082641;28;20032;-57
2022/11/08 01:16:16;;;;;;;5.05;1.55;;;12.30;99.90;;;;;;5078867;28;20031;-52
2022/11/08 01:18:43;;;;;;;3.58;1.70;;;12.30;99.90;;;;;;5075182;28;20033;-57
2022/11/08 01:21:09;;;;;;;4.95;1.65;;;12.30;99.90;;;;;;5083113;28;20063;-55
2022/11/08 01:23:35;;;;;;;3.05;1.52;;;12.30;99.90;;;;;;5065699;28;20111;-58
2022/11/08 01:26:04;;;;;;;3.55;1.80;;;12.30;99.90;;;;;;5075474;28;20096;-57
2022/11/08 01:28:33;;;;;;;4.68;1.88;;;12.30;99.90;;;;;;5082401;28;20095;-55
2022/11/08 01:31:08;;;;;;;4.65;1.65;;;12.30;99.90;;;;;;5080661;28;20032;-55
2022/11/08 01:33:34;;;;;;;5.25;1.77;;;12.20;99.90;;;;;;5083866;28;20020;-56
2022/11/08 01:36:00;;;;;;;5.82;1.65;;;12.20;99.90;;;;;;5082569;28;20031;-56
2022/11/08 01:38:25;;;;;;;4.18;2.20;;;12.20;99.90;;;;;;5082114;28;20077;-56
2022/11/08 01:40:51;;;;;;;4.00;1.65;;;12.20;99.90;;;;;;5082905;28;20023;-56
2022/11/08 01:43:28;;;;;;;4.28;2.03;;;12.10;99.90;;;;;;5080387;28;20440;-54
2022/11/08 01:46:09;;;;;;;5.35;1.70;;;12.10;99.90;;;;;;5073453;28;20020;-54
2022/11/08 01:48:38;;;;;;;6.13;2.10;;;12.10;99.90;;;;;;5079918;28;20368;-53
2022/11/08 01:51:06;;;;;;;3.75;1.48;;;12.10;99.90;;;;;;5074815;28;20101;-53
2022/11/08 01:53:31;;;;;;;4.85;1.73;;;12.10;99.90;;;;;;5079976;28;20525;-55
2022/11/08 01:55:57;;;;;;;4.25;1.55;;;12.10;99.90;;;;;;5081755;28;20028;-51
2022/11/08 01:58:27;;;;;;;3.40;1.73;;;12.10;99.90;;;;;;5079605;28;20031;-57
2022/11/08 02:00:53;;;;;;;3.08;1.45;;;12.10;99.90;;;;;;5077919;28;20103;-55
2022/11/08 02:03:19;;;;;;;6.75;1.63;;;12.00;99.90;;;;;;5084485;28;20499;-51
2022/11/08 02:05:46;;;;;;;5.82;1.70;;;12.00;99.90;;;;;;5076228;28;20071;-56
2022/11/08 02:08:32;;;;;;;4.72;2.05;;;12.00;99.90;;;;;;5060830;28;20016;-52
2022/11/08 02:10:57;;;;;;;6.55;1.88;;;12.00;99.90;;;;;;5058233;28;20024;-56
2022/11/08 02:13:25;;;;;;;5.40;1.70;;;12.00;99.90;;;;;;5064773;28;20514;-54
2022/11/08 02:15:51;;;;;;;3.42;1.50;;;12.00;99.90;;;;;;5078206;28;20032;-57
2022/11/08 02:18:20;;;;;;;2.78;1.73;;;11.90;99.90;;;;;;5079988;28;20107;-54
2022/11/08 02:21:16;;;;;;;5.80;1.85;;;11.90;99.90;;;;;;5076294;28;20650;-52
2022/11/08 02:23:49;;;;;;;5.55;1.58;;;11.90;99.90;;;;;;5067687;28;20095;-56
2022/11/08 02:26:17;;;;;;;2.72;2.10;;;11.90;99.90;;;;;;5074364;28;20413;-55
2022/11/08 02:28:46;;;;;;;4.95;2.20;;;11.90;99.90;;;;;;5082814;28;20032;-57
2022/11/08 02:31:13;;;;;;;5.57;1.77;;;11.90;99.90;;;;;;5083922;28;20130;-54
2022/11/08 02:33:40;;;;;;;2.70;1.60;;;11.80;99.90;;;;;;5079349;28;20024;-56
2022/11/08 02:36:07;;;;;;;3.17;1.95;;;11.80;99.90;;;;;;5079543;28;20032;-53
2022/11/08 02:38:37;;;;;;;3.63;1.60;;;11.80;99.90;;;;;;5079213;28;20027;-55
2022/11/08 02:41:03;;;;;;;3.88;1.50;;;11.80;99.90;;;;;;5079381;28;20016;-53
2022/11/08 02:43:29;;;;;;;4.70;1.85;;;11.80;99.90;;;;;;5082236;28;20035;-54
2022/11/08 02:45:57;;;;;;;3.88;2.53;;;11.80;99.90;;;;;;5080959;28;20023;-57
2022/11/08 02:48:23;;;;;;;2.35;1.42;;;11.80;99.90;;;;;;5064605;28;20028;-55
2022/11/08 02:50:49;;;;;;;4.10;1.90;;;11.80;99.90;;;;;;5076330;28;20032;-56
2022/11/08 02:53:15;;;;;;;7.22;1.73;;;11.80;99.90;;;;;;5081932;28;20024;-53
2022/11/08 02:55:41;;;;;;;5.68;2.25;;;11.90;99.90;;;;;;5075289;28;20044;-54
2022/11/08 02:58:06;;;;;;;6.53;1.90;;;11.90;99.90;;;;;;5055649;28;20068;-53
2022/11/08 03:00:32;;;;;;;7.18;2.17;;;11.90;99.90;;;;;;5076331;28;20080;-57
2022/11/08 03:02:58;;;;;;;4.97;1.75;;;12.00;99.90;;;;;;5074377;28;20598;-55
2022/11/08 03:05:25;;;;;;;5.38;1.98;;;12.00;99.90;;;;;;5059570;28;20059;-56
2022/11/08 03:07:51;;;;;;;6.88;2.00;;;12.00;99.90;;;;;;5080716;28;20033;-55
2022/11/08 03:10:17;;;;;;;4.85;1.67;;;12.00;99.90;;;;;;5074781;28;20027;-52
2022/11/08 03:12:43;;;;;;;4.00;1.48;;;12.10;99.90;;;;;;5075087;28;20036;-55
2022/11/08 03:15:10;;;;;;;6.53;2.22;;;12.10;99.90;;;;;;5074479;28;20107;-54
2022/11/08 03:17:36;;;;;;;4.53;1.50;;;12.10;99.90;;;;;;5062811;28;20521;-53
2022/11/08 03:20:02;;;;;;;6.47;1.85;;;12.10;99.90;;;;;;5058625;28;20111;-54
2022/11/08 03:22:27;;;;;;;4.78;1.58;;;12.20;99.90;;;;;;5081573;28;20020;-56
2022/11/08 03:24:53;;;;;;;5.05;1.60;;;12.20;99.90;;;;;;5055385;28;20021;-55
2022/11/08 03:27:18;;;;;;;5.35;1.77;;;12.20;99.90;;;;;;5075097;28;20028;-52
2022/11/08 03:29:45;;;;;;;5.97;1.88;;;12.20;99.90;;;;;;5074685;28;20162;-57
2022/11/08 03:32:12;;;;;;;4.45;1.58;;;12.20;99.90;;;;;;5073830;28;20491;-51
2022/11/08 03:34:37;;;;;;;7.32;1.60;;;12.20;99.90;;;;;;5081525;28;20043;-54
2022/11/08 03:37:08;;;;;;;3.90;1.75;;;12.20;99.90;;;;;;5079005;28;20028;-56
2022/11/08 03:39:34;;;;;;;3.30;1.40;;;12.20;99.90;;;;;;5059439;28;20034;-56
2022/11/08 03:42:01;;;;;;;4.55;2.17;;;12.10;99.90;;;;;;5061319;28;20107;-54
2022/11/08 03:44:28;;;;;;;5.45;1.58;;;12.10;99.90;;;;;;5058192;28;20020;-56
2022/11/08 03:46:54;;;;;;;4.43;1.65;;;12.00;99.90;;;;;;5080200;28;20056;-52
2022/11/08 03:49:20;;;;;;;5.95;2.13;;;12.00;99.90;;;;;;5078578;28;20059;-55
2022/11/08 03:51:45;;;;;;;6.35;1.70;;;12.00;99.90;;;;;;5056288;28;20119;-56
2022/11/08 03:54:11;;;;;;;5.20;1.88;;;11.90;99.90;;;;;;5080552;28;20032;-56
2022/11/08 03:56:36;;;;;;;6.13;2.03;;;11.90;99.90;;;;;;5077332;28;20028;-54
2022/11/08 03:59:02;;;;;;;3.70;1.65;;;11.90;99.90;;;;;;5078738;28;20115;-54
2022/11/08 04:01:27;;;;;;;4.55;2.08;;;11.90;99.90;;;;;;5077462;28;20092;-56
2022/11/08 04:03:53;;;;;;;5.72;1.65;;;11.80;99.90;;;;;;5061138;28;20027;-55
2022/11/08 04:06:19;;;;;;;2.92;1.50;;;11.80;99.90;;;;;;5060763;28;20111;-54
2022/11/08 04:08:44;;;;;;;3.63;2.33;;;11.80;99.90;;;;;;5080849;28;20031;-52
2022/11/08 04:16:39;;;;;;;4.78;1.95;;;11.70;99.90;;;;;;5077059;28;20035;-53
2022/11/08 04:21:51;;;;;;;3.65;2.28;;;11.70;99.90;;;;;;5073421;28;20115;-54
2022/11/08 04:24:17;;;;;;;8.20;2.25;;;11.60;99.90;;;;;;5069722;28;20115;-56
2022/11/08 04:26:43;;;;;;;5.22;1.60;;;11.60;99.90;;;;;;5077143;28;20100;-56
2022/11/08 04:29:09;;;;;;;3.80;1.95;;;11.60;99.90;;;;;;5053323;28;21108;-56
2022/11/08 04:31:35;;;;;;;4.97;1.73;;;11.60;99.90;;;;;;5076398;28;20062;-55
2022/11/08 04:34:01;;;;;;;6.95;1.88;;;11.50;99.90;;;;;;5073964;28;20028;-54
2022/11/08 04:36:27;;;;;;;5.82;2.05;;;11.50;99.90;;;;;;5073004;28;20034;-53
2022/11/08 04:38:52;;;;;;;4.55;1.50;;;11.50;99.90;;;;;;5078097;28;20036;-56
2022/11/08 04:41:20;;;;;;;4.03;1.83;;;11.50;99.90;;;;;;5080431;28;20035;-54
2022/11/08 04:43:47;;;;;;;7.70;2.25;;;11.40;99.90;;;;;;5079179;28;20028;-56
2022/11/08 04:46:15;;;;;;;7.55;2.13;;;11.40;99.90;;;;;;5080152;28;20020;-55
2022/11/08 04:48:42;;;;;;;3.40;1.40;;;11.40;99.90;;;;;;5080264;28;20024;-55
2022/11/08 04:51:17;;;;;;;7.35;1.90;;;11.40;99.90;;;;;;5072192;28;20043;-53
2022/11/08 04:53:43;;;;;;;5.18;2.33;;;11.40;99.90;;;;;;5079261;28;20078;-53
2022/11/08 04:56:11;;;;;;;7.57;2.30;;;11.40;99.90;;;;;;5057123;28;20033;-54
2022/11/08 04:58:42;;;;;;;7.40;2.03;;;11.40;99.90;;;;;;5077366;28;20012;-57
2022/11/08 05:01:10;;;;;;;6.55;2.13;;;11.30;99.90;;;;;;5072489;28;20640;-55
2022/11/08 05:03:36;;;;;;;4.75;2.00;;;11.30;99.90;;;;;;5060528;28;20038;-53
2022/11/08 05:06:08;;;;;;;6.45;2.10;;;11.30;99.90;;;;;;5055074;28;20500;-54
2022/11/08 05:08:34;;;;;;;5.68;2.03;;;11.20;99.90;;;;;;5080255;28;20016;-55
2022/11/08 05:11:00;;;;;;;6.45;2.28;;;11.20;99.90;;;;;;5069152;28;20081;-53
2022/11/08 05:13:26;;;;;;;6.05;2.05;;;11.20;99.90;;;;;;5074477;28;20071;-53
2022/11/08 05:15:51;;;;;;;5.30;1.48;;;11.20;99.90;;;;;;5074437;28;20047;-53
2022/11/08 05:18:17;;;;;;;3.55;1.58;;;11.20;99.90;;;;;;5071108;28;20020;-54
2022/11/08 05:23:27;;;;;;;3.83;2.05;;;11.10;99.90;;;;;;5074177;28;20486;-53
2022/11/08 05:25:54;;;;;;;4.05;1.80;;;11.10;99.90;;;;;;5076002;28;20021;-54
2022/11/08 05:28:20;;;;;;;5.63;1.90;;;11.10;99.90;;;;;;5074285;28;20047;-54
2022/11/08 05:30:54;;;;;;;7.68;1.90;;;11.00;99.90;;;;;;5076135;28;20028;-55
2022/11/08 05:33:20;;;;;;;8.52;1.92;;;11.00;99.90;;;;;;5073284;28;20047;-57
2022/11/08 05:35:46;;;;;;;5.75;2.10;;;11.00;99.90;;;;;;5071257;28;20063;-53
2022/11/08 05:38:12;;;;;;;5.85;1.85;;;11.00;99.90;;;;;;5060802;28;20530;-55
2022/11/08 05:40:37;;;;;;;7.50;1.73;;;11.00;99.90;;;;;;5074784;28;20141;-53
2022/11/08 05:43:03;;;;;;;3.63;1.75;;;10.90;99.90;;;;;;5078439;28;20365;-55
2022/11/08 05:45:28;;;;;;;6.03;2.20;;;10.90;99.90;;;;;;5080992;28;20503;-56
2022/11/08 05:47:56;;;;;;;4.22;1.50;;;10.90;99.90;;;;;;5080774;28;20021;-52
2022/11/08 05:50:22;;;;;;;5.15;2.15;;;10.90;99.90;;;;;;5084954;28;20052;-54
2022/11/08 05:52:48;;;;;;;3.97;1.73;;;10.90;99.90;;;;;;5079576;28;20021;-56
2022/11/08 05:55:13;;;;;;;3.35;1.75;;;10.90;99.90;;;;;;5065334;28;20028;-54
2022/11/08 05:57:42;;;;;;;5.40;2.38;;;10.80;99.90;;;;;;5064256;28;20030;-56
2022/11/08 06:00:09;;;;;;;6.63;2.42;;;10.80;99.90;;;;;;5075390;28;20062;-55
2022/11/08 06:02:35;;;;;;;2.10;1.20;;;10.80;99.90;;;;;;5085675;28;20399;-55
2022/11/08 06:05:01;;;;;;;6.50;2.35;;;10.70;99.90;;;;;;5081430;28;20024;-55
2022/11/08 06:07:27;;;;;;;5.13;1.95;;;10.70;99.90;;;;;;5085934;28;20020;-54
2022/11/08 06:09:52;;;;;;;12.20;1.80;;;10.70;99.90;;;;;;5080035;28;20057;-52
2022/11/08 06:12:19;;;;;;;5.13;2.40;;;10.80;99.90;;;;;;5067883;28;20055;-53
2022/11/08 06:14:44;;;;;;;5.32;2.70;;;10.70;99.90;;;;;;5082934;28;20020;-56
2022/11/08 06:17:10;;;;;;;5.47;2.47;;;10.70;99.90;;;;;;5064261;28;20241;-57
2022/11/08 06:19:36;;;;;;;10.00;2.50;;;10.70;99.90;;;;;;5085586;28;20055;-55
2022/11/08 06:22:01;;;;;;;6.85;1.98;;;10.60;99.90;;;;;;5062545;28;20020;-52
2022/11/08 06:24:27;;;;;;;8.85;2.38;;;10.60;99.90;;;;;;5084025;28;20040;-56
2022/11/08 06:26:52;;;;;;;5.75;1.95;;;10.60;99.90;;;;;;5078957;28;20090;-56
2022/11/08 06:29:18;;;;;;;7.97;2.33;;;10.60;99.90;;;;;;5077787;28;20438;-56
2022/11/08 06:31:43;;;;;;;4.40;1.60;;;10.60;99.90;;;;;;5056255;28;20406;-56
2022/11/08 06:34:09;;;;;;;8.63;2.20;;;10.60;99.90;;;;;;5080245;28;20027;-56
2022/11/08 06:36:35;;;;;;;7.38;2.58;;;10.60;99.90;;;;;;5082593;28;20059;-54
2022/11/08 06:39:01;;;;;;;6.15;2.15;;;10.50;99.90;;;;;;5079085;28;20631;-52
2022/11/08 06:41:28;;;;;;;6.20;2.53;;;10.50;99.90;;;;;;5081887;28;20040;-51
2022/11/08 06:43:54;;;;;;;8.40;2.42;;;10.50;99.90;;;;;;5062149;28;20020;-56
2022/11/08 06:46:20;;;;;;;4.90;2.03;;;10.50;99.90;;;;;;5077977;28;21795;-54
2022/11/08 06:48:45;;;;;;;5.47;2.00;;;10.50;99.90;;;;;;5075890;28;20024;-55
2022/11/08 06:51:11;;;;;;;4.35;2.30;;;10.50;99.90;;;;;;5081740;28;20047;-53
2022/11/08 06:53:37;;;;;;;4.55;2.08;;;10.50;99.90;;;;;;5078431;28;20024;-53
2022/11/08 06:56:03;;;;;;;4.15;2.47;;;10.50;99.90;;;;;;5078151;28;20025;-53
2022/11/08 06:58:29;;;;;;;2.90;1.60;;;10.50;99.90;;;;;;5080349;28;20017;-57
2022/11/08 07:00:55;;;;;;;7.68;2.05;;;10.40;99.90;;;;;;5061286;28;20012;-54
2022/11/08 07:03:20;;;;;;;4.63;2.15;;;10.40;99.90;;;;;;5081454;28;20471;-53
2022/11/08 07:05:46;;;;;;;8.88;2.97;;;10.50;99.90;;;;;;5079619;28;20377;-55
2022/11/08 07:08:12;;;;;;;4.30;2.17;;;10.50;99.90;;;;;;5081904;28;20076;-54
2022/11/08 07:10:39;;;;;;;8.63;2.72;;;10.40;99.90;;;;;;5080784;28;20050;-55
2022/11/08 07:13:10;;;;;;;7.10;2.78;;;10.50;99.90;;;;;;5079757;28;20040;-51
2022/11/08 07:15:37;;;;;;;3.55;2.15;;;10.50;99.90;;;;;;5062799;28;20041;-54
2022/11/08 07:18:11;;;;;;;5.90;2.28;;;10.50;99.90;;;;;;5080225;28;20028;-54
2022/11/08 07:20:38;;;;;;;4.95;2.13;;;10.50;99.90;;;;;;5081850;28;20365;-53
2022/11/08 07:23:05;;;;;;;4.43;2.00;;;10.50;99.90;;;;;;5062737;28;20020;-54
2022/11/08 07:25:31;;;;;;;6.15;2.47;;;10.50;99.90;;;;;;5081850;28;20091;-55
2022/11/08 07:27:59;;;;;;;5.97;2.47;;;10.50;99.90;;;;;;5080081;28;20031;-55
2022/11/08 07:30:25;;;;;;;8.85;3.35;;;10.50;99.90;;;;;;5063045;28;20058;-53
2022/11/08 07:32:51;;;;;;;6.80;2.75;;;10.40;99.90;;;;;;5080451;28;20468;-55
2022/11/08 07:35:17;;;;;;;12.57;3.13;;;10.50;99.90;;;;;;5078269;28;20055;-55
2022/11/08 07:37:43;;;;;;;8.40;3.42;;;10.50;99.90;;;;;;5068724;28;20070;-55
2022/11/08 07:40:09;;;;;;;7.15;2.63;;;10.50;99.90;;;;;;5074018;28;20043;-55
2022/11/08 07:42:39;;;;;;;3.67;2.88;;;10.50;99.90;;;;;;5052963;28;20024;-53
2022/11/08 07:45:07;;;;;;;6.07;3.67;;;10.50;99.90;;;;;;5083999;28;20024;-54
2022/11/08 07:47:32;;;;;;;4.05;2.88;;;10.60;99.90;;;;;;5077552;28;20099;-53
2022/11/08 07:49:59;;;;;;;5.22;2.20;;;10.60;99.90;;;;;;5086053;28;20586;-53
2022/11/08 07:52:25;;;;;;;5.22;2.80;;;10.70;99.90;;;;;;5077778;28;20052;-56
2022/11/08 07:54:50;;;;;;;4.40;1.95;;;10.70;99.90;;;;;;5077836;28;20028;-55
2022/11/08 07:57:16;;;;;;;9.10;2.70;;;10.70;99.90;;;;;;5086637;28;20020;-53
2022/11/08 07:59:42;;;;;;;7.07;2.25;;;10.80;99.90;;;;;;5059635;28;20571;-53
2022/11/08 08:02:12;;;;;;;4.18;2.20;;;10.90;99.90;;;;;;5084470;28;20117;-56
2022/11/08 08:04:38;;;;;;;4.85;2.00;;;10.90;99.90;;;;;;5058710;28;20022;-52
2022/11/08 08:07:04;;;;;;;8.05;2.30;;;10.90;99.90;;;;;;5066760;28;20031;-55
2022/11/08 08:09:29;;;;;;;7.35;2.53;;;11.00;99.90;;;;;;5077417;28;21165;-56
2022/11/08 08:11:55;;;;;;;6.40;2.67;;;11.00;99.90;;;;;;5060082;28;20551;-55
2022/11/08 08:14:21;;;;;;;3.17;1.90;;;11.00;99.90;;;;;;5064001;28;20111;-55
2022/11/08 08:16:46;;;;;;;5.90;2.47;;;11.10;99.90;;;;;;5077156;28;20519;-55
2022/11/08 08:19:12;;;;;;;5.22;2.58;;;11.10;99.90;;;;;;5084216;28;20071;-56
2022/11/08 08:21:37;;;;;;;4.85;2.35;;;11.10;99.90;;;;;;5076921;28;20028;-55
2022/11/08 08:24:04;;;;;;;4.28;1.90;;;11.20;99.90;;;;;;5067458;28;20023;-55
2022/11/08 08:26:29;;;;;;;5.10;2.70;;;11.30;99.90;;;;;;5075557;28;20490;-56
2022/11/08 08:28:55;;;;;;;5.88;1.83;;;11.30;99.90;;;;;;5069423;28;20021;-54
2022/11/08 08:31:21;;;;;;;5.57;2.25;;;11.40;99.90;;;;;;5072207;28;20020;-56
2022/11/08 08:33:46;;;;;;;6.15;2.05;;;11.50;99.90;;;;;;5076712;28;20190;-54
2022/11/08 08:36:12;;;;;;;4.50;1.90;;;11.60;99.90;;;;;;5055487;28;20024;-53
2022/11/08 08:38:37;;;;;;;3.88;1.98;;;11.60;99.90;;;;;;5079713;28;20028;-52
2022/11/08 08:41:03;;;;;;;5.40;2.08;;;11.70;99.90;;;;;;5074718;28;20021;-56
2022/11/08 08:43:32;;;;;;;4.32;2.10;;;11.80;99.90;;;;;;5079795;28;20024;-56
2022/11/08 08:46:00;;;;;;;2.72;1.85;;;11.80;99.90;;;;;;5071485;28;20033;-56
2022/11/08 08:48:25;;;;;;;4.80;2.35;;;11.80;99.90;;;;;;5080326;28;20501;-55
2022/11/08 08:50:51;;;;;;;5.93;2.28;;;11.80;99.90;;;;;;5075505;28;20029;-54
2022/11/08 08:53:16;;;;;;;4.35;1.52;;;11.90;99.90;;;;;;5079998;28;20108;-53
2022/11/08 08:55:42;;;;;;;6.22;2.28;;;11.90;99.90;;;;;;5060637;28;20036;-56
2022/11/08 08:58:09;;;;;;;5.38;2.00;;;11.90;99.90;;;;;;5079366;28;20055;-53
2022/11/08 09:00:35;;;;;;;3.53;1.75;;;12.00;99.90;;;;;;5079974;28;20032;-57
2022/11/08 09:03:06;;;;;;;4.60;1.90;;;12.00;99.90;;;;;;5078679;28;20108;-57
2022/11/08 09:05:33;;;;;;;4.30;2.20;;;12.10;99.90;;;;;;5080075;28;20024;-54
2022/11/08 09:07:58;;;;;;;2.88;1.80;;;12.10;99.90;;;;;;5075821;28;20021;-54
2022/11/08 09:10:24;;;;;;;5.75;1.75;;;12.20;99.90;;;;;;5080085;28;20035;-54
2022/11/08 09:12:50;;;;;;;4.50;1.98;;;12.20;99.90;;;;;;5077036;28;20028;-54
2022/11/08 09:15:16;;;;;;;3.05;1.48;;;12.20;99.90;;;;;;5080090;28;20483;-55
2022/11/08 09:17:42;;;;;;;5.03;1.92;;;12.20;99.90;;;;;;5072749;28;20040;-56
2022/11/08 09:20:09;;;;;;;6.00;1.90;;;12.30;99.90;;;;;;5083138;28;20050;-52
2022/11/08 09:22:35;;;;;;;5.63;1.63;;;12.30;99.90;;;;;;5079422;28;20501;-50
2022/11/08 09:25:00;;;;;;;2.05;1.23;;;12.30;99.90;;;;;;5065472;28;20099;-57
2022/11/08 09:27:28;;;;;;;1.90;1.67;;;12.30;99.90;;;;;;5083856;28;20107;-57
2022/11/08 09:29:54;;;;;;;3.60;1.50;;;12.40;99.90;;;;;;5076405;28;21239;-57
2022/11/08 09:32:20;;;;;;;4.85;1.65;;;12.40;99.90;;;;;;5071414;28;20036;-52
2022/11/08 09:34:45;;;;;;;9.98;2.33;;;12.40;99.90;;;;;;5081192;28;20027;-57
2022/11/08 09:37:11;;;;;;;3.85;1.45;;;12.50;99.90;;;;;;5080358;28;20044;-54
2022/11/08 09:39:36;;;;;;;6.25;1.70;;;12.60;99.90;;;;;;5080257;28;20075;-56
2022/11/08 09:42:21;;;;;;;3.03;1.50;;;12.60;99.90;;;;;;5081740;28;20024;-54
2022/11/08 09:44:49;;;;;;;3.67;1.65;;;12.70;99.90;;;;;;5081443;28;20396;-57
2022/11/08 09:47:39;;;;;;;5.47;1.70;;;12.70;99.90;;;;;;5079248;28;20016;-56
2022/11/08 09:50:20;;;;;;;7.65;1.58;;;12.70;99.90;;;;;;5082037;28;20100;-56
2022/11/08 09:53:17;;;;;;;6.82;1.77;;;12.80;99.90;;;;;;5078908;28;20100;-55
2022/11/08 09:55:59;;;;;;;3.20;1.40;;;12.80;99.90;;;;;;5052403;28;20457;-56
2022/11/08 09:58:44;;;;;;;4.05;1.75;;;12.90;99.90;;;;;;5069113;28;20028;-54
2022/11/08 10:01:11;;;;;;;5.93;2.45;;;12.90;99.90;;;;;;5082672;28;20083;-52
2022/11/08 10:03:37;;;;;;;7.78;2.47;;;12.90;99.90;;;;;;5064976;28;20066;-56
2022/11/08 10:06:47;;;;;;;2.47;1.55;;;12.90;99.90;;;;;;5082732;28;20061;-55
2022/11/08 10:09:18;;;;;;;3.78;1.70;;;12.90;99.90;;;;;;5079546;28;20039;-54
2022/11/08 10:12:01;;;;;;;4.05;1.92;;;12.90;99.90;;;;;;5072066;28;20032;-55
2022/11/08 10:14:40;;;;;;;6.72;1.48;;;12.90;99.90;;;;;;5052439;28;20110;-55
2022/11/08 10:17:28;;;;;;;3.70;1.58;;;12.90;99.90;;;;;;5076397;28;20031;-52
2022/11/08 10:20:17;;;;;;;1.77;1.38;;;13.00;99.90;;;;;;5063762;28;20029;-56
2022/11/08 10:23:01;;;;;;;9.27;2.40;;;13.00;99.90;;;;;;5082851;28;20018;-55
2022/11/08 10:25:41;;;;;;;4.28;1.50;;;13.00;99.90;;;;;;5072570;28;20154;-52
2022/11/08 10:28:12;;;;;;;4.53;1.92;;;13.00;99.90;;;;;;5062567;28;20077;-55
2022/11/08 10:30:40;;;;;;;4.00;1.85;;;13.10;99.90;;;;;;5083493;28;20048;-54
2022/11/08 10:33:30;;;;;;;5.10;1.70;;;13.10;99.90;;;;;;5062077;28;20392;-56
2022/11/08 10:36:12;;;;;;;3.17;2.08;;;13.10;99.90;;;;;;5059257;28;20131;-56
2022/11/08 10:39:12;;;;;;;2.13;1.77;;;13.10;99.90;;;;;;5081782;28;20047;-57
2022/11/08 10:42:06;;;;;;;5.07;1.80;;;13.10;99.90;;;;;;5068723;28;20028;-57
2022/11/08 10:44:33;;;;;;;4.45;1.80;;;13.20;99.90;;;;;;5075450;28;20089;-54
2022/11/08 10:47:02;;;;;;;4.93;2.03;;;13.20;99.90;;;;;;5080456;28;20012;-55
2022/11/08 10:49:33;;;;;;;3.63;1.63;;;13.20;99.90;;;;;;5083922;28;20020;-57
2022/11/08 10:52:16;;;;;;;3.22;1.60;;;13.20;99.90;;;;;;5080947;28;20399;-56
2022/11/08 10:54:53;;;;;;;6.68;1.85;;;13.20;99.90;;;;;;5074712;28;20108;-58
2022/11/08 10:57:37;;;;;;;4.97;2.10;;;13.20;99.90;;;;;;5073373;28;20378;-58
2022/11/08 11:00:22;;;;;;;7.18;2.00;;;13.20;99.90;;;;;;5068353;28;20024;-58
2022/11/08 11:02:52;;;;;;;3.85;2.00;;;13.20;99.90;;;;;;5071207;28;20020;-56
2022/11/08 11:05:29;;;;;;;5.35;1.70;;;13.30;99.90;;;;;;5069008;28;20016;-55
2022/11/08 11:08:04;;;;;;;3.95;1.83;;;13.30;99.90;;;;;;5077379;28;20031;-57
2022/11/08 11:10:33;;;;;;;3.70;2.15;;;13.30;99.90;;;;;;5081884;28;20442;-57
2022/11/08 11:13:39;;;;;;;4.40;1.60;;;13.30;99.90;;;;;;5079150;28;20108;-55
2022/11/08 11:16:12;;;;;;;5.83;2.40;;;13.30;99.90;;;;;;4986694;28;20430;-56
2022/11/08 11:18:45;;;;;;;6.57;2.05;;;13.30;99.90;;;;;;5055842;28;20143;-53
2022/11/08 11:21:15;;;;;;;6.72;1.55;;;13.30;99.90;;;;;;5078842;28;20055;-56
2022/11/08 11:23:50;;;;;;;4.10;1.48;;;13.40;99.90;;;;;;5085169;28;20016;-56
2022/11/08 11:26:29;;;;;;;2.97;1.83;;;13.40;99.90;;;;;;5067908;28;20065;-55
2022/11/08 11:29:03;;;;;;;5.05;1.85;;;13.40;99.90;;;;;;5078781;28;20013;-58
2022/11/08 11:31:39;;;;;;;3.25;1.50;;;13.40;99.90;;;;;;5077993;28;20035;-55
2022/11/08 11:34:34;;;;;;;2.15;1.83;;;13.40;99.90;;;;;;5068831;28;20103;-54
2022/11/08 11:37:07;;;;;;;1.48;1.38;;;13.50;99.90;;;;;;5052471;28;20559;-58
2022/11/08 11:40:03;;;;;;;6.00;1.75;;;13.50;99.90;;;;;;5080819;28;20024;-54
2022/11/08 11:42:44;;;;;;;1.52;1.42;;;13.60;99.90;;;;;;5053286;28;20105;-52
2022/11/08 11:45:18;;;;;;;5.45;1.75;;;13.70;99.90;;;;;;5080822;28;20024;-57
2022/11/08 11:47:49;;;;;;;1.92;1.48;;;13.80;99.90;;;;;;5057503;28;20094;-55
2022/11/08 11:50:33;;;;;;;4.40;1.85;;;13.80;99.90;;;;;;5075900;28;20136;-54
2022/11/08 11:53:03;;;;;;;4.00;1.50;;;13.80;99.90;;;;;;5061509;28;20024;-56
2022/11/08 11:55:44;;;;;;;7.32;1.80;;;13.80;99.90;;;;;;5075109;28;20055;-56
2022/11/08 11:58:28;;;;;;;3.15;1.42;;;13.80;99.90;;;;;;5078204;28;20028;-56
2022/11/08 12:01:16;;;;;;;2.65;1.88;;;13.90;99.90;;;;;;5067053;28;20059;-54
2022/11/08 12:04:15;;;;;;;5.30;2.08;;;13.90;99.90;;;;;;5077466;28;20103;-53
2022/11/08 12:07:00;;;;;;;6.38;1.52;;;13.90;99.90;;;;;;5070840;28;20544;-56
2022/11/08 12:09:44;;;;;;;2.35;1.45;;;13.90;99.90;;;;;;5071634;28;20028;-57
2022/11/08 12:12:45;;;;;;;2.95;1.67;;;13.90;99.90;;;;;;5079083;28;20032;-56
2022/11/08 12:15:23;;;;;;;2.65;1.20;;;14.00;99.90;;;;;;5059682;28;20020;-55
2022/11/08 12:18:05;;;;;;;3.47;1.52;;;14.00;99.90;;;;;;5085413;28;20027;-53
2022/11/08 12:21:27;;;;;;;3.22;1.45;;;14.00;99.90;;;;;;5074076;28;20060;-55
2022/11/08 12:24:35;;;;;;;3.95;1.30;;;14.00;99.90;;;;;;4971734;28;20047;-54
2022/11/08 12:27:21;;;;;;;2.33;1.97;;;14.00;99.90;;;;;;4915717;28;20122;-54
2022/11/08 12:29:50;;;;;;;;;;;14.00;99.90;;;;;;5080833;28;20278;-55
2022/11/08 12:32:52;;;;;;;3.08;1.60;;;14.00;99.90;;;;;;5075664;28;19904;-53
2022/11/08 12:35:30;;;;;;;2.50;1.38;;;14.00;99.90;;;;;;5071288;28;20028;-53
2022/11/08 12:40:41;;;;;;;3.22;1.42;;;14.10;99.90;;;;;;5065783;28;20036;-60
2022/11/08 12:43:49;;;;;;;2.35;1.23;;;14.00;99.90;;;;;;5064022;28;20023;-60
2022/11/08 12:46:19;;;;;;;1.92;0.90;;;14.10;99.90;;;;;;5030182;28;20255;-60
2022/11/08 12:49:12;;;;;;;2.40;1.33;;;14.10;99.90;;;;;;5066705;28;20667;-60
2022/11/08 12:51:57;;;;;;;2.03;1.15;;;14.10;99.90;;;;;;5067334;28;20032;-60
2022/11/08 12:54:23;;;;;;;4.00;1.83;;;14.10;99.90;;;;;;5069117;28;20030;-58
2022/11/08 12:56:51;;;;;;;2.85;1.10;;;14.10;99.90;;;;;;5072269;28;20025;-59
2022/11/08 12:59:32;;;;;;;2.83;1.35;;;14.10;99.90;;;;;;5072735;28;20029;-60
2022/11/08 13:02:00;;;;;;;3.63;1.00;;;14.20;99.90;;;;;;5072095;28;20015;-60
2022/11/08 13:05:01;;;;;;;3.22;1.35;;;14.20;99.90;;;;;;5054407;28;20024;-60
2022/11/08 13:07:47;;;;;;;2.90;1.20;;;14.20;99.90;;;;;;5062919;28;20040;-61
2022/11/08 13:10:29;;;;;;;1.90;0.98;;;14.20;99.90;;;;;;5063797;28;20051;-58
2022/11/08 13:13:00;;;;;;;2.55;1.02;;;14.30;99.90;;;;;;5066650;28;20036;-58
2022/11/08 13:15:27;;;;;;;2.55;1.13;;;14.20;99.90;;;;;;5071911;28;20458;-60
2022/11/08 13:18:12;;;;;;;3.85;1.30;;;14.30;99.90;;;;;;5071401;28;20024;-60
2022/11/08 13:20:38;;;;;;;1.13;1.00;;;14.30;99.90;;;;;;5054483;28;20570;-60
2022/11/08 13:23:42;;;;;;;1.73;1.38;;;14.30;99.90;;;;;;5052944;28;20025;-59
2022/11/08 13:26:19;;;;;;;2.47;0.95;;;14.30;99.90;;;;;;5006416;28;20516;-59
2022/11/08 13:28:45;;;;;;;3.85;1.65;;;14.30;99.90;;;;;;5059603;28;20492;-59